Time;durP1;ratioP1;P1;durP2;ratioP2;P2;SDS_P1;SDS_P2;PMS_P1;PMS_P2;Temp;Humidity;BMP_temperature;BMP_pressure;BME280_temperature;BME280_humidity;BME280_pressure;Samples;Min_cycle;Max_cycle;Signal;HPM_P1;HPM_P2
2022/02/25 00:01:45;;;;;;;4.57;1.45;;;;;;;1.94;95.15;95614.19;5107528;28;20036;-74
2022/02/25 00:04:11;;;;;;;1.73;1.20;;;;;;;1.90;96.09;95603.44;5108065;28;20085;-74
2022/02/25 00:06:36;;;;;;;2.10;1.30;;;;;;;1.80;96.56;95624.66;5101494;28;20036;-75
2022/02/25 00:09:05;;;;;;;1.75;1.30;;;;;;;1.55;97.13;95648.78;5091856;28;20044;-75
2022/02/25 00:11:34;;;;;;;2.97;1.23;;;;;;;1.47;98.18;95646.44;5098398;28;20035;-73
2022/02/25 00:14:00;;;;;;;1.38;1.10;;;;;;;1.45;98.98;95638.06;5089545;28;20043;-72
2022/02/25 00:16:26;;;;;;;1.20;1.10;;;;;;;1.55;100.00;95648.78;5091361;28;20048;-73
2022/02/25 00:18:51;;;;;;;1.25;1.02;;;;;;;1.47;98.58;95651.63;5095991;28;20495;-73
2022/02/25 00:21:17;;;;;;;1.60;1.20;;;;;;;1.49;98.80;95644.41;5107211;28;20051;-73
2022/02/25 00:23:43;;;;;;;2.20;1.05;;;;;;;1.51;99.17;95660.56;5102222;28;20036;-73
2022/02/25 00:26:09;;;;;;;1.25;1.10;;;;;;;1.52;99.44;95661.34;5104455;28;20417;-73
2022/02/25 00:28:34;;;;;;;3.05;1.38;;;;;;;1.43;99.15;95676.38;5107548;28;20047;-73
2022/02/25 00:31:00;;;;;;;1.27;1.15;;;;;;;1.49;100.00;95675.53;5094532;28;20043;-74
2022/02/25 00:33:26;;;;;;;1.63;1.20;;;;;;;1.54;98.87;95683.50;5102597;28;20096;-75
2022/02/25 00:35:52;;;;;;;1.60;1.08;;;;;;;1.45;100.00;95679.56;5103983;28;20572;-73
2022/02/25 00:38:19;;;;;;;4.15;1.10;;;;;;;1.48;100.00;95673.97;5088929;28;20062;-74
2022/02/25 00:40:45;;;;;;;3.05;1.17;;;;;;;1.41;99.69;95673.19;5093473;28;20417;-73
2022/02/25 00:43:11;;;;;;;2.65;0.95;;;;;;;1.31;99.08;95654.69;5088743;28;20043;-73
2022/02/25 00:45:36;;;;;;;1.55;0.90;;;;;;;1.23;98.06;95652.34;5088599;28;20036;-73
2022/02/25 00:48:03;;;;;;;1.20;0.82;;;;;;;1.23;99.40;95654.94;5088986;28;20039;-74
2022/02/25 00:50:28;;;;;;;5.22;0.77;;;;;;;1.31;98.53;95652.91;5093383;28;20075;-73
2022/02/25 00:52:55;;;;;;;3.70;0.80;;;;;;;1.24;98.86;95674.69;5103946;28;20486;-73
2022/02/25 00:55:22;;;;;;;3.60;1.00;;;;;;;1.14;99.98;95683.66;5095448;28;20493;-73
2022/02/25 00:57:50;;;;;;;3.92;1.27;;;;;;;1.18;100.00;95692.63;5109106;28;20044;-73
2022/02/25 01:00:20;;;;;;;1.10;1.00;;;;;;;1.13;98.85;95697.63;5102339;28;20497;-73
2022/02/25 01:02:46;;;;;;;2.35;1.20;;;;;;;1.11;100.00;95699.63;5094120;28;20040;-73
2022/02/25 01:05:12;;;;;;;2.03;1.00;;;;;;;1.04;100.00;95689.28;5093251;28;20052;-73
2022/02/25 01:07:40;;;;;;;2.67;1.25;;;;;;;1.00;100.00;95676.94;5093058;28;20682;-73
2022/02/25 01:10:08;;;;;;;2.78;1.00;;;;;;;0.95;100.00;95700.06;5093021;28;20085;-74
2022/02/25 01:12:34;;;;;;;1.75;1.10;;;;;;;0.83;100.00;95703.31;5095395;28;20043;-74
2022/02/25 01:15:00;;;;;;;2.95;1.30;;;;;;;0.61;100.00;95714.91;5102667;28;20421;-73
2022/02/25 01:17:29;;;;;;;3.92;1.60;;;;;;;0.65;100.00;95726.47;5092814;28;20036;-73
2022/02/25 01:19:59;;;;;;;2.92;1.30;;;;;;;0.71;100.00;95746.38;5101878;28;20054;-73
2022/02/25 01:22:25;;;;;;;3.20;1.70;;;;;;;0.65;100.00;95767.91;5112357;28;20050;-73
2022/02/25 01:24:51;;;;;;;4.03;1.75;;;;;;;0.66;100.00;95779.84;5103384;28;20036;-73
2022/02/25 01:27:17;;;;;;;4.72;2.05;;;;;;;0.64;100.00;95776.66;5111071;28;20101;-73
2022/02/25 01:29:42;;;;;;;5.63;1.80;;;;;;;0.58;100.00;95777.47;5111938;28;20047;-73
2022/02/25 01:32:09;;;;;;;3.78;1.50;;;;;;;0.75;100.00;95796.78;5102228;28;20047;-73
2022/02/25 01:34:34;;;;;;;3.78;1.50;;;;;;;0.70;100.00;95822.47;5101412;28;20046;-72
2022/02/25 01:37:00;;;;;;;4.10;1.40;;;;;;;0.77;100.00;95820.69;5112511;28;20063;-72
2022/02/25 01:39:26;;;;;;;2.03;1.05;;;;;;;0.71;100.00;95824.09;5099171;28;20035;-73
2022/02/25 01:41:51;;;;;;;2.28;1.30;;;;;;;0.65;100.00;95814.53;5092515;28;20039;-73
2022/02/25 01:44:20;;;;;;;1.85;1.40;;;;;;;0.59;100.00;95810.13;5101561;28;20535;-73
2022/02/25 01:46:52;;;;;;;2.88;1.40;;;;;;;0.54;100.00;95817.69;5105213;28;20489;-74
2022/02/25 01:49:18;;;;;;;1.80;1.30;;;;;;;0.55;100.00;95819.28;5111696;28;20044;-72
2022/02/25 01:51:45;;;;;;;2.85;1.08;;;;;;;0.57;100.00;95817.31;5097259;28;20039;-74
2022/02/25 01:54:11;;;;;;;3.35;1.27;;;;;;;0.54;100.00;95812.53;5105427;28;20081;-73
2022/02/25 01:56:39;;;;;;;6.10;1.52;;;;;;;0.59;100.00;95825.66;5090073;28;20044;-73
2022/02/25 01:59:05;;;;;;;1.60;1.10;;;;;;;0.61;100.00;95826.28;5100532;28;20126;-74
2022/02/25 02:01:31;;;;;;;3.20;1.27;;;;;;;0.56;100.00;95832.06;5105047;28;20504;-73
2022/02/25 02:03:57;;;;;;;1.52;0.70;;;;;;;0.54;100.00;95843.59;5104860;28;20063;-74
2022/02/25 02:06:22;;;;;;;1.00;0.80;;;;;;;0.48;100.00;95840.00;5091128;28;20062;-74
2022/02/25 02:08:49;;;;;;;4.18;1.30;;;;;;;0.39;100.00;95841.97;5095990;28;20036;-73
2022/02/25 02:11:26;;;;;;;3.22;1.40;;;;;;;0.39;100.00;95836.81;5110277;28;20043;-74
2022/02/25 02:13:52;;;;;;;0.85;0.70;;;;;;;0.33;100.00;95828.03;5111518;28;20417;-74
2022/02/25 02:16:17;;;;;;;1.58;0.90;;;;;;;0.30;98.32;95832.78;5097959;28;20047;-75
2022/02/25 02:18:43;;;;;;;4.35;1.20;;;;;;;0.24;99.26;95828.41;5092374;28;20035;-74
2022/02/25 02:21:09;;;;;;;1.15;0.77;;;;;;;0.30;100.00;95828.44;5107136;28;20398;-73
2022/02/25 02:23:34;;;;;;;3.60;1.00;;;;;;;0.34;100.00;95844.34;5106914;28;20036;-75
2022/02/25 02:26:00;;;;;;;2.55;0.95;;;;;;;0.32;98.83;95851.53;5097266;28;20512;-74
2022/02/25 02:28:27;;;;;;;3.22;1.25;;;;;;;0.31;99.18;95844.75;5091720;28;20047;-74
2022/02/25 02:30:53;;;;;;;2.05;1.00;;;;;;;0.23;100.00;95852.69;5109885;28;20035;-74
2022/02/25 02:33:20;;;;;;;3.42;1.20;;;;;;;0.26;100.00;95854.88;5100349;28;20040;-74
2022/02/25 02:35:46;;;;;;;1.10;0.80;;;;;;;0.29;100.00;95862.28;5090860;28;20043;-75
2022/02/25 02:38:12;;;;;;;2.72;0.77;;;;;;;0.30;99.89;95871.63;5091234;28;20752;-74
2022/02/25 02:40:38;;;;;;;1.75;0.85;;;;;;;0.36;100.00;95872.63;5107434;28;20055;-74
2022/02/25 02:43:06;;;;;;;4.60;1.45;;;;;;;0.31;99.64;95870.63;5097989;28;20459;-74
2022/02/25 02:45:31;;;;;;;0.70;0.60;;;;;;;0.41;99.67;95875.44;5103700;28;20039;-74
2022/02/25 02:47:57;;;;;;;3.95;0.98;;;;;;;0.34;98.51;95872.84;5091084;28;20464;-74
2022/02/25 02:50:23;;;;;;;4.95;0.82;;;;;;;0.30;98.72;95869.84;5097884;28;20040;-73
2022/02/25 02:52:48;;;;;;;3.47;1.02;;;;;;;0.28;97.68;95871.03;5102914;28;20047;-74
2022/02/25 02:55:14;;;;;;;2.78;1.00;;;;;;;0.28;97.28;95881.38;5107569;28;20102;-74
2022/02/25 02:57:40;;;;;;;3.55;1.20;;;;;;;0.33;95.29;95889.34;5104361;28;20040;-74
2022/02/25 03:00:07;;;;;;;3.80;0.93;;;;;;;0.20;95.69;95878.97;5097794;28;20456;-73
2022/02/25 03:02:32;;;;;;;0.90;0.50;;;;;;;0.31;94.66;95868.06;5099545;27;20071;-73
2022/02/25 03:04:58;;;;;;;1.40;0.60;;;;;;;0.36;95.30;95876.03;5090591;28;20031;-74
2022/02/25 03:07:24;;;;;;;2.17;0.63;;;;;;;0.31;94.72;95876.59;5090555;28;20044;-74
2022/02/25 03:09:50;;;;;;;2.67;0.77;;;;;;;0.31;95.06;95870.63;5096841;28;20113;-73
2022/02/25 03:12:15;;;;;;;0.68;0.50;;;;;;;0.34;95.17;95870.25;5104001;28;20118;-74
2022/02/25 03:14:41;;;;;;;2.10;0.70;;;;;;;0.23;94.67;95879.38;5093344;28;20048;-74
2022/02/25 03:17:07;;;;;;;6.50;0.80;;;;;;;0.36;95.21;95883.81;5102739;28;20048;-74
2022/02/25 03:19:35;;;;;;;1.73;0.52;;;;;;;0.37;95.05;95889.78;5104084;28;20040;-73
2022/02/25 03:22:01;;;;;;;1.55;0.40;;;;;;;0.37;95.09;95890.56;5092374;28;20079;-73
2022/02/25 03:24:27;;;;;;;2.38;1.02;;;;;;;0.37;95.50;95900.91;5099414;28;20081;-73
2022/02/25 03:26:52;;;;;;;3.25;0.57;;;;;;;0.34;96.39;95896.13;5108034;28;20031;-73
2022/02/25 03:29:18;;;;;;;2.78;0.70;;;;;;;0.38;94.47;95902.53;5109109;28;20513;-73
2022/02/25 03:31:44;;;;;;;2.88;0.70;;;;;;;0.39;94.84;95903.31;5107225;28;20044;-74
2022/02/25 03:34:09;;;;;;;2.17;1.10;;;;;;;0.37;94.11;95916.44;5105708;28;20071;-73
2022/02/25 03:36:35;;;;;;;3.03;0.98;;;;;;;0.36;94.85;95909.69;5108713;28;20447;-73
2022/02/25 03:39:00;;;;;;;2.92;0.80;;;;;;;0.30;96.00;95910.44;5098098;28;20096;-73
2022/02/25 03:41:27;;;;;;;1.08;0.65;;;;;;;0.37;94.17;95911.28;5102120;28;20552;-73
2022/02/25 03:43:52;;;;;;;3.00;0.93;;;;;;;0.32;94.77;95911.88;5089976;28;20043;-73
2022/02/25 03:46:18;;;;;;;3.70;0.68;;;;;;;0.38;94.70;95912.88;5089833;28;20098;-73
2022/02/25 03:48:44;;;;;;;1.02;0.70;;;;;;;0.37;93.47;95921.63;5090043;28;20040;-74
2022/02/25 03:51:09;;;;;;;3.60;0.98;;;;;;;0.33;94.26;95931.59;5098267;28;20044;-73
2022/02/25 03:53:35;;;;;;;4.13;0.68;;;;;;;0.36;93.91;95935.59;5108349;28;20497;-73
2022/02/25 03:56:01;;;;;;;4.50;0.73;;;;;;;0.33;94.80;95930.78;5100686;28;20537;-73
2022/02/25 03:58:26;;;;;;;1.58;0.63;;;;;;;0.37;93.18;95932.00;5089248;28;20040;-73
2022/02/25 04:00:52;;;;;;;1.17;0.52;;;;;;;0.36;93.18;95925.22;5104081;28;20044;-74
2022/02/25 04:03:18;;;;;;;2.95;0.85;;;;;;;0.37;91.95;95942.34;5089671;28;20039;-74
2022/02/25 04:05:43;;;;;;;1.55;0.65;;;;;;;0.41;92.78;95951.31;5089488;28;20051;-73
2022/02/25 04:08:09;;;;;;;2.72;1.13;;;;;;;0.38;93.08;95949.13;5089942;28;20074;-74
2022/02/25 04:10:35;;;;;;;0.73;0.47;;;;;;;0.30;94.82;95947.53;5096480;28;20539;-74
2022/02/25 04:13:01;;;;;;;2.05;0.80;;;;;;;0.43;93.65;95946.78;5108702;28;20416;-74
2022/02/25 04:15:27;;;;;;;2.42;0.95;;;;;;;0.33;94.66;95954.06;5101948;28;20446;-74
2022/02/25 04:17:53;;;;;;;0.73;0.63;;;;;;;0.44;92.55;95945.75;5109172;28;20050;-74
2022/02/25 04:20:18;;;;;;;2.03;0.70;;;;;;;0.32;94.12;95955.09;5099015;28;20047;-74
2022/02/25 04:22:44;;;;;;;1.63;0.60;;;;;;;0.38;93.13;95954.31;5100795;28;20134;-74
2022/02/25 04:25:09;;;;;;;3.88;0.85;;;;;;;0.48;92.03;95954.72;5100599;28;20520;-73
2022/02/25 04:27:36;;;;;;;5.13;0.90;;;;;;;0.46;92.98;95955.91;5089457;28;20093;-72
2022/02/25 04:30:02;;;;;;;2.05;0.90;;;;;;;0.52;91.65;95955.94;5089213;28;20100;-73
2022/02/25 04:32:27;;;;;;;2.95;0.77;;;;;;;0.49;91.73;95961.53;5102167;28;20043;-73
2022/02/25 04:34:53;;;;;;;1.08;0.60;;;;;;;0.48;90.45;95959.91;5105185;28;20131;-74
2022/02/25 04:37:18;;;;;;;0.90;0.50;;;;;;;0.41;92.07;95964.28;5089518;28;20048;-74
2022/02/25 04:39:44;;;;;;;1.58;0.63;;;;;;;0.49;91.32;95977.06;5089887;28;20130;-74
2022/02/25 04:42:10;;;;;;;1.17;0.70;;;;;;;0.42;92.06;95965.09;5098889;28;20036;-74
2022/02/25 04:44:35;;;;;;;2.55;0.95;;;;;;;0.45;90.93;95975.84;5108287;28;20052;-73
2022/02/25 04:47:01;;;;;;;1.65;0.60;;;;;;;0.49;90.63;95971.88;5106963;28;20044;-74
2022/02/25 04:49:27;;;;;;;3.45;0.63;;;;;;;0.48;89.35;95975.44;5091162;28;20191;-74
2022/02/25 04:51:52;;;;;;;2.17;0.88;;;;;;;0.48;90.88;95970.28;5101763;28;20042;-74
2022/02/25 04:54:18;;;;;;;1.42;0.55;;;;;;;0.35;92.60;95970.22;5103847;28;20043;-75
2022/02/25 04:56:43;;;;;;;2.65;0.90;;;;;;;0.44;89.78;95974.22;5104197;28;20043;-73
2022/02/25 04:59:09;;;;;;;4.78;0.88;;;;;;;0.42;89.81;95973.66;5109757;28;20071;-74
2022/02/25 05:01:34;;;;;;;3.75;0.88;;;;;;;0.48;89.13;95983.22;5107607;28;20141;-74
2022/02/25 05:04:00;;;;;;;3.75;1.10;;;;;;;0.47;89.13;95979.03;5106068;28;20130;-73
2022/02/25 05:06:25;;;;;;;0.95;0.60;;;;;;;0.55;89.18;95982.44;5104164;28;20044;-74
2022/02/25 05:08:54;;;;;;;3.13;0.80;;;;;;;0.48;88.62;95980.63;5088996;28;20611;-74
2022/02/25 05:11:19;;;;;;;4.43;0.75;;;;;;;0.46;88.06;95993.00;5088771;28;20048;-74
2022/02/25 05:13:45;;;;;;;1.92;0.80;;;;;;;0.46;88.26;95987.00;5104851;28;20118;-75
2022/02/25 05:21:39;;;;;;;2.78;0.80;;;;;;;0.31;89.28;96016.41;5091900;28;20048;-74
2022/02/25 05:24:05;;;;;;;2.15;0.68;;;;;;;0.38;88.96;96007.88;5107648;28;20405;-74
2022/02/25 05:26:31;;;;;;;2.72;0.70;;;;;;;0.34;88.88;96015.22;5104444;28;20035;-74
2022/02/25 05:28:56;;;;;;;2.60;0.73;;;;;;;0.28;89.29;96019.38;5088951;28;20040;-73
2022/02/25 05:31:22;;;;;;;2.28;1.00;;;;;;;0.28;89.54;96031.53;5088522;28;20055;-73
2022/02/25 05:33:48;;;;;;;3.35;0.77;;;;;;;0.26;88.45;96041.25;5095937;28;20036;-74
2022/02/25 05:36:14;;;;;;;3.03;0.63;;;;;;;0.21;89.88;96038.47;5092724;28;20039;-74
2022/02/25 05:38:41;;;;;;;4.32;1.25;;;;;;;0.28;88.13;96047.06;5092447;28;20044;-73
2022/02/25 05:41:06;;;;;;;2.05;0.98;;;;;;;0.21;88.46;96035.88;5088833;28;20105;-73
2022/02/25 05:43:32;;;;;;;1.92;0.80;;;;;;;0.13;88.82;96042.81;5099717;28;20048;-73
2022/02/25 05:45:57;;;;;;;3.80;0.88;;;;;;;0.15;88.95;96038.22;5100019;28;20062;-74
2022/02/25 05:48:23;;;;;;;3.13;0.88;;;;;;;0.09;88.59;96049.34;5097259;28;20036;-74
2022/02/25 05:50:49;;;;;;;4.63;0.90;;;;;;;0.16;89.34;96055.38;5102769;28;20040;-73
2022/02/25 05:53:14;;;;;;;1.92;0.93;;;;;;;0.19;89.00;96053.38;5107057;28;20497;-73
2022/02/25 05:55:40;;;;;;;2.85;0.85;;;;;;;0.12;89.96;96061.13;5100544;28;20043;-73
2022/02/25 05:58:06;;;;;;;3.03;1.15;;;;;;;0.17;88.78;96064.75;5107339;28;20062;-74
2022/02/25 06:00:32;;;;;;;1.50;0.80;;;;;;;0.10;90.52;96063.91;5109877;28;20055;-74
2022/02/25 06:02:57;;;;;;;3.53;1.17;;;;;;;0.08;90.16;96068.44;5112288;28;20040;-72
2022/02/25 06:05:23;;;;;;;5.47;1.10;;;;;;;-0.02;90.96;96067.97;5097490;28;20775;-73
2022/02/25 06:07:49;;;;;;;5.43;1.23;;;;;;;0.03;90.62;96076.00;5101723;28;20468;-73
2022/02/25 06:10:15;;;;;;;0.88;0.70;;;;;;;0.10;89.62;96082.00;5091572;28;20093;-73
2022/02/25 06:12:41;;;;;;;1.58;0.93;;;;;;;0.06;89.32;96085.97;5098717;28;20035;-74
2022/02/25 06:15:08;;;;;;;2.50;1.10;;;;;;;0.10;89.96;96086.38;5104626;28;20048;-75
2022/02/25 06:17:48;;;;;;;2.00;0.88;;;;;;;0.10;89.46;96089.78;5095984;27;20043;-73
2022/02/25 06:20:15;;;;;;;1.70;0.68;;;;;;;0.08;90.78;96096.91;5097010;28;20078;-74
2022/02/25 06:22:41;;;;;;;0.73;0.45;;;;;;;0.11;89.69;96109.47;5102871;27;20081;-71
2022/02/25 06:25:07;;;;;;;1.58;0.82;;;;;;;0.13;89.77;96101.50;5101623;28;20044;-72
2022/02/25 06:27:32;;;;;;;1.88;0.90;;;;;;;0.20;89.91;96107.53;5106594;28;20164;-71
2022/02/25 06:29:58;;;;;;;3.78;0.80;;;;;;;0.22;90.14;96105.59;5107963;28;20548;-72
2022/02/25 06:32:24;;;;;;;0.95;0.77;;;;;;;0.25;89.41;96109.59;5102774;28;20047;-72
2022/02/25 06:34:49;;;;;;;0.65;0.52;;;;;;;0.11;91.87;96106.88;5096901;28;20093;-73
2022/02/25 06:37:15;;;;;;;4.38;1.15;;;;;;;0.21;88.08;96113.53;5111509;28;20039;-72
2022/02/25 06:39:40;;;;;;;6.68;1.00;;;;;;;0.16;88.51;96116.69;5108325;28;20421;-72
2022/02/25 06:42:06;;;;;;;3.08;1.25;;;;;;;0.15;87.97;96125.44;5103859;28;20082;-72
2022/02/25 06:44:32;;;;;;;3.00;1.10;;;;;;;0.02;89.49;96126.13;5096958;28;20055;-72
2022/02/25 06:46:57;;;;;;;4.00;1.10;;;;;;;0.09;90.08;96139.94;5100034;27;20040;-71
2022/02/25 06:49:23;;;;;;;1.77;0.90;;;;;;;0.12;89.12;96142.13;5106978;28;20140;-72
2022/02/25 06:51:48;;;;;;;5.70;1.65;;;;;;;0.20;87.73;96145.56;5110780;28;20505;-71
2022/02/25 06:54:14;;;;;;;1.92;0.93;;;;;;;0.19;88.72;96143.97;5107891;28;20048;-71
2022/02/25 06:56:40;;;;;;;2.50;1.58;;;;;;;0.21;88.38;96154.94;5107778;28;20039;-71
2022/02/25 06:59:05;;;;;;;3.42;1.20;;;;;;;0.16;87.22;96163.28;5091563;28;20102;-72
2022/02/25 07:01:31;;;;;;;3.72;1.10;;;;;;;0.23;88.54;96160.72;5103137;28;20043;-71
2022/02/25 07:03:58;;;;;;;2.25;0.80;;;;;;;0.19;87.37;96162.91;5098703;28;20035;-72
2022/02/25 07:06:24;;;;;;;2.25;1.20;;;;;;;0.15;87.33;96162.47;5096649;27;20039;-71
2022/02/25 07:08:51;;;;;;;2.67;1.23;;;;;;;0.22;86.96;96177.28;5111538;28;20039;-71
2022/02/25 07:11:20;;;;;;;5.80;1.20;;;;;;;0.30;86.03;96174.53;5104212;28;20066;-73
2022/02/25 07:13:47;;;;;;;3.58;1.00;;;;;;;0.23;87.12;96165.91;5107430;28;20036;-72
2022/02/25 07:16:13;;;;;;;1.35;0.90;;;;;;;0.36;85.87;96173.78;5098317;27;20043;-73
2022/02/25 07:18:38;;;;;;;2.58;1.25;;;;;;;0.31;87.27;96178.72;5091246;28;20040;-74
2022/02/25 07:21:04;;;;;;;4.85;1.30;;;;;;;0.43;85.95;96179.81;5107610;27;20043;-74
2022/02/25 07:23:30;;;;;;;2.63;1.05;;;;;;;0.46;84.40;96179.44;5097401;28;20047;-72
2022/02/25 07:25:55;;;;;;;2.90;1.50;;;;;;;0.52;83.37;96176.09;5096726;28;20097;-77
2022/02/25 07:28:21;;;;;;;3.10;1.00;;;;;;;0.45;84.71;96183.00;5092231;28;20051;-73
2022/02/25 07:30:46;;;;;;;4.40;1.20;;;;;;;0.47;84.11;96183.59;5098633;28;20040;-73
2022/02/25 07:33:12;;;;;;;2.15;1.02;;;;;;;0.46;84.25;96187.22;5106159;27;20105;-73
2022/02/25 07:35:38;;;;;;;3.05;0.90;;;;;;;0.55;83.02;96189.63;5108710;28;20042;-73
2022/02/25 07:38:03;;;;;;;4.57;0.82;;;;;;;0.52;81.97;96199.41;5111523;28;20507;-73
2022/02/25 07:40:29;;;;;;;3.33;1.02;;;;;;;0.50;82.25;96196.19;5103401;27;20074;-73
2022/02/25 07:42:55;;;;;;;0.68;0.68;;;;;;;0.43;82.66;96203.13;5101445;28;20047;-72
2022/02/25 07:45:21;;;;;;;4.20;1.20;;;;;;;0.36;83.31;96199.69;5088980;28;20095;-72
2022/02/25 07:47:46;;;;;;;2.22;1.05;;;;;;;0.32;84.02;96199.25;5100824;28;20089;-71
2022/02/25 07:50:14;;;;;;;6.35;1.45;;;;;;;0.28;84.73;96202.41;5101127;28;20043;-70
2022/02/25 07:52:41;;;;;;;0.90;0.90;;;;;;;0.20;84.88;96205.13;5104118;28;20081;-72
2022/02/25 07:55:08;;;;;;;1.73;1.00;;;;;;;0.20;85.39;96210.28;5095020;28;20055;-72
2022/02/25 07:57:35;;;;;;;7.22;1.20;;;;;;;0.14;86.08;96212.66;5109013;27;20063;-72
2022/02/25 08:00:06;;;;;;;5.63;1.13;;;;;;;0.08;86.27;96213.38;5100872;27;20047;-72
2022/02/25 08:02:32;;;;;;;1.45;1.00;;;;;;;-0.01;87.56;96217.09;5101153;28;20039;-72
2022/02/25 08:04:57;;;;;;;5.15;1.13;;;;;;;0.09;86.91;96214.19;5090357;28;20119;-72
2022/02/25 08:07:23;;;;;;;2.42;0.90;;;;;;;0.16;88.07;96217.66;5090578;28;20032;-72
2022/02/25 08:09:49;;;;;;;3.28;1.33;;;;;;;0.24;87.08;96221.88;5094005;28;20042;-72
2022/02/25 08:12:15;;;;;;;3.25;1.20;;;;;;;0.29;88.20;96216.97;5107127;28;20100;-73
2022/02/25 08:14:40;;;;;;;4.72;1.20;;;;;;;0.38;86.75;96222.81;5098794;28;20039;-72
2022/02/25 08:17:06;;;;;;;1.85;0.90;;;;;;;0.47;87.82;96226.84;5104058;28;20035;-72
2022/02/25 08:19:32;;;;;;;3.20;1.13;;;;;;;0.39;87.03;96220.03;5102170;28;20051;-72
2022/02/25 08:21:58;;;;;;;2.13;1.10;;;;;;;0.61;86.37;96222.56;5104917;27;20044;-71
2022/02/25 08:24:24;;;;;;;3.88;1.50;;;;;;;0.62;86.17;96226.78;5099086;28;20071;-71
2022/02/25 08:26:50;;;;;;;2.40;0.90;;;;;;;0.68;85.84;96220.81;5107339;28;20421;-72
2022/02/25 08:29:16;;;;;;;2.88;1.17;;;;;;;0.79;83.68;96215.13;5092446;27;20051;-71
2022/02/25 08:31:43;;;;;;;9.40;1.15;;;;;;;0.69;83.65;96214.66;5096369;28;20101;-71
2022/02/25 08:34:10;;;;;;;6.03;1.20;;;;;;;0.82;81.68;96219.91;5097450;28;20553;-72
2022/02/25 08:36:36;;;;;;;8.15;1.63;;;;;;;1.01;83.55;96222.81;5108120;28;20031;-71
2022/02/25 08:39:03;;;;;;;2.25;1.08;;;;;;;1.03;82.20;96215.66;5107601;28;20144;-72
2022/02/25 08:41:29;;;;;;;3.10;1.10;;;;;;;1.00;80.18;96216.03;5101843;28;20050;-73
2022/02/25 08:43:55;;;;;;;3.58;1.10;;;;;;;1.23;80.53;96210.56;5107990;28;20043;-71
2022/02/25 08:46:22;;;;;;;6.22;1.50;;;;;;;1.13;79.91;96216.09;5096281;28;20120;-72
2022/02/25 08:48:48;;;;;;;4.15;1.50;;;;;;;1.23;78.68;96214.97;5090493;28;20429;-71
2022/02/25 08:51:13;;;;;;;1.90;0.90;;;;;;;1.06;79.34;96225.63;5106080;28;20040;-71
2022/02/25 08:53:39;;;;;;;5.85;1.50;;;;;;;1.16;79.63;96215.69;5097600;28;20524;-72
2022/02/25 08:56:08;;;;;;;2.88;1.10;;;;;;;1.16;79.72;96215.69;5096489;28;20442;-72
2022/02/25 08:58:35;;;;;;;5.97;1.73;;;;;;;1.14;78.52;96224.69;5094531;28;20044;-72
2022/02/25 09:01:01;;;;;;;4.38;1.27;;;;;;;1.33;77.65;96223.19;5099956;28;20428;-73
2022/02/25 09:03:27;;;;;;;4.22;1.23;;;;;;;1.42;76.06;96219.41;5095783;28;20524;-73
2022/02/25 09:05:53;;;;;;;7.07;1.27;;;;;;;1.47;75.68;96222.22;5089344;28;20064;-73
2022/02/25 09:08:18;;;;;;;5.43;1.17;;;;;;;1.65;75.30;96219.13;5102835;28;20038;-73
2022/02/25 09:10:45;;;;;;;2.53;1.00;;;;;;;1.62;74.29;96214.28;5102705;28;20036;-73
2022/02/25 09:13:11;;;;;;;9.13;1.60;;;;;;;1.76;74.32;96217.72;5089594;28;20041;-76
2022/02/25 09:15:37;;;;;;;5.05;1.25;;;;;;;1.95;71.04;96223.97;5088230;28;20044;-76
2022/02/25 09:18:04;;;;;;;8.18;1.83;;;;;;;2.05;72.99;96228.78;5091551;28;20044;-74
2022/02/25 09:20:30;;;;;;;5.43;1.42;;;;;;;1.96;71.00;96229.97;5110965;28;20135;-75
2022/02/25 09:22:57;;;;;;;3.45;1.30;;;;;;;2.06;69.41;96235.56;5113678;28;20112;-75
2022/02/25 09:25:24;;;;;;;2.95;0.93;;;;;;;1.90;69.90;96227.16;5103426;28;20091;-77
2022/02/25 09:27:50;;;;;;;5.32;1.50;;;;;;;2.14;71.43;96237.16;5108434;27;20048;-77
2022/02/25 09:30:16;;;;;;;3.53;1.00;;;;;;;2.13;70.68;96226.00;5101552;28;20397;-76
2022/02/25 09:32:42;;;;;;;4.70;1.00;;;;;;;2.37;70.06;96223.81;5096742;28;20034;-77
2022/02/25 09:35:08;;;;;;;5.32;1.10;;;;;;;2.27;67.47;96226.81;5108904;27;20044;-78
2022/02/25 09:37:35;;;;;;;3.47;1.25;;;;;;;2.29;66.21;96235.19;5093720;28;20048;-78
2022/02/25 09:40:07;;;;;;;3.17;0.95;;;;;;;2.23;66.39;96226.41;5093768;28;20040;-74
2022/02/25 09:42:37;;;;;;;4.20;1.30;;;;;;;2.32;65.41;96224.41;5102062;28;20046;-74
2022/02/25 09:45:05;;;;;;;6.28;1.30;;;;;;;2.31;65.60;96237.59;5093301;28;20036;-74
2022/02/25 09:47:31;;;;;;;3.25;1.02;;;;;;;2.48;64.32;96233.59;5095855;28;20095;-76
2022/02/25 09:49:57;;;;;;;2.05;0.98;;;;;;;2.54;62.68;96217.22;5097633;28;20035;-74
2022/02/25 09:52:25;;;;;;;4.30;1.23;;;;;;;2.82;66.71;96213.59;5091802;28;20082;-74
2022/02/25 09:54:51;;;;;;;4.47;1.33;;;;;;;2.90;63.51;96210.78;5099330;28;20495;-73
2022/02/25 09:57:16;;;;;;;5.80;1.13;;;;;;;2.92;61.91;96206.16;5102715;28;20111;-72
2022/02/25 09:59:42;;;;;;;3.17;1.10;;;;;;;3.09;61.26;96218.75;5100231;28;20489;-72
2022/02/25 10:02:08;;;;;;;6.60;1.20;;;;;;;3.22;60.58;96210.91;5097482;27;20044;-74
2022/02/25 10:04:35;;;;;;;2.40;0.98;;;;;;;3.27;56.97;96216.28;5097625;28;20067;-76
2022/02/25 10:07:01;;;;;;;4.47;1.25;;;;;;;3.07;53.35;96218.13;5092025;28;20047;-75
2022/02/25 10:09:34;;;;;;;4.63;1.20;;;;;;;3.43;51.95;96222.03;5092768;28;20043;-75
2022/02/25 10:12:10;;;;;;;4.05;0.98;;;;;;;3.82;53.90;96230.66;5108126;28;20138;-75
2022/02/25 10:14:41;;;;;;;5.85;1.10;;;;;;;3.80;54.36;96214.47;5097442;28;20039;-75
2022/02/25 10:17:14;;;;;;;6.18;1.90;;;;;;;4.74;54.50;96224.22;5105569;28;20048;-74
2022/02/25 10:19:42;;;;;;;4.32;1.30;;;;;;;5.56;51.73;96218.75;5096604;28;20040;-74
2022/02/25 10:22:22;;;;;;;3.90;1.27;;;;;;;5.30;50.94;96222.44;5092875;28;20056;-75
2022/02/25 10:25:04;;;;;;;3.85;1.05;;;;;;;4.76;53.33;96217.00;5103788;27;20036;-80
2022/02/25 10:27:30;;;;;;;4.47;0.98;;;;;;;4.27;52.60;96225.38;5100481;28;20574;-78
2022/02/25 10:30:04;;;;;;;8.35;1.10;;;;;;;3.92;51.05;96223.22;5096446;28;20040;-77
2022/02/25 10:32:29;;;;;;;7.95;1.10;;;;;;;3.64;51.35;96226.94;5106289;27;20505;-74
2022/02/25 10:34:55;;;;;;;3.50;1.20;;;;;;;3.17;51.57;96220.31;5095959;28;20051;-75
2022/02/25 10:37:21;;;;;;;2.45;1.02;;;;;;;3.09;50.71;96221.34;5093139;28;20067;-73
2022/02/25 10:39:47;;;;;;;4.47;1.00;;;;;;;3.03;49.88;96219.53;5095370;28;20044;-73
2022/02/25 10:42:20;;;;;;;6.75;1.45;;;;;;;3.06;50.17;96224.34;5091270;28;20044;-74
2022/02/25 10:44:47;;;;;;;6.57;1.38;;;;;;;3.02;50.93;96217.97;5098519;28;20032;-75
2022/02/25 10:47:27;;;;;;;9.55;1.58;;;;;;;3.21;52.01;96219.69;5103543;28;20036;-75
2022/02/25 10:50:17;;;;;;;4.53;1.55;;;;;;;3.23;51.93;96215.09;5091143;28;20040;-73
2022/02/25 10:52:46;;;;;;;6.53;1.13;;;;;;;4.15;50.95;96216.63;5100114;28;20051;-73
2022/02/25 10:55:21;;;;;;;5.85;1.40;;;;;;;6.55;45.56;96201.91;5102008;28;20036;-73
2022/02/25 10:57:47;;;;;;;4.63;1.08;;;;;;;5.21;46.66;96208.91;5101107;28;20043;-74
2022/02/25 11:00:15;;;;;;;6.47;1.08;;;;;;;4.99;48.91;96211.94;5103071;28;20046;-74
2022/02/25 11:02:47;;;;;;;5.93;1.30;;;;;;;4.42;48.88;96206.03;5092201;28;20056;-74
2022/02/25 11:05:24;;;;;;;1.95;1.02;;;;;;;4.90;48.53;96204.59;5093500;28;20043;-77
2022/02/25 11:07:51;;;;;;;3.58;1.15;;;;;;;4.80;47.94;96207.72;5099729;28;20039;-76
2022/02/25 11:10:20;;;;;;;3.13;1.42;;;;;;;4.47;50.90;96203.59;5099858;28;20047;-75
2022/02/25 11:12:47;;;;;;;4.07;0.98;;;;;;;3.82;48.61;96196.81;5109726;28;20050;-75
2022/02/25 11:15:19;;;;;;;4.15;0.90;;;;;;;3.63;48.82;96201.13;5104355;28;20489;-76
2022/02/25 11:17:46;;;;;;;5.70;1.13;;;;;;;3.72;48.46;96206.88;5110232;28;20497;-75
2022/02/25 11:20:17;;;;;;;6.78;1.27;;;;;;;3.45;48.57;96194.00;5094685;28;20487;-75
2022/02/25 11:22:43;;;;;;;7.28;1.30;;;;;;;3.27;48.67;96194.66;5109520;28;20032;-76
2022/02/25 11:25:14;;;;;;;4.75;1.38;;;;;;;5.79;45.00;96202.41;5092626;28;20047;-75
2022/02/25 11:27:44;;;;;;;3.08;1.05;;;;;;;6.40;41.95;96190.06;5102227;28;20040;-75
2022/02/25 11:30:20;;;;;;;3.00;1.27;;;;;;;6.12;42.27;96192.50;5101886;28;20043;-74
2022/02/25 11:32:56;;;;;;;4.70;1.02;;;;;;;5.15;44.09;96189.69;5095415;28;20028;-75
2022/02/25 11:35:28;;;;;;;9.82;1.23;;;;;;;4.75;44.12;96190.09;5110438;28;20040;-74
2022/02/25 11:38:03;;;;;;;6.90;1.30;;;;;;;5.97;42.29;96185.88;5110841;28;20050;-74
2022/02/25 11:40:50;;;;;;;6.18;1.58;;;;;;;7.70;39.38;96176.00;5103951;28;20048;-75
2022/02/25 11:43:17;;;;;;;7.47;1.40;;;;;;;8.91;36.30;96173.22;5097619;28;20682;-75
2022/02/25 11:45:52;;;;;;;1.83;1.13;;;;;;;9.42;35.07;96173.84;5097271;28;20039;-75